createdAt,value
2022-08-03T00:01:48.704Z,20.50
2022-08-03T00:04:15.246Z,20.50
2022-08-03T00:06:41.855Z,20.40
2022-08-03T00:09:09.435Z,20.30
2022-08-03T00:11:37.485Z,20.20
2022-08-03T00:14:05.441Z,20.20
2022-08-03T00:16:32.404Z,20.10
2022-08-03T00:19:00.751Z,20.10
2022-08-03T00:21:28.186Z,20.00
2022-08-03T00:23:54.808Z,20.00
2022-08-03T00:26:21.844Z,19.80
2022-08-03T00:28:49.070Z,19.80
2022-08-03T00:31:16.058Z,19.70
2022-08-03T00:33:58.258Z,19.70
2022-08-03T00:36:26.747Z,19.60
2022-08-03T00:38:53.305Z,19.60
2022-08-03T00:41:19.850Z,19.60
2022-08-03T00:43:47.411Z,19.50
2022-08-03T00:46:19.049Z,19.50
2022-08-03T00:48:49.196Z,19.40
2022-08-03T00:51:15.862Z,19.40
2022-08-03T00:53:43.300Z,19.30
2022-08-03T00:56:12.724Z,19.30
2022-08-03T00:58:39.287Z,19.20
2022-08-03T01:01:07.119Z,19.20
2022-08-03T01:03:34.403Z,19.30
2022-08-03T01:06:16.686Z,19.30
2022-08-03T01:09:09.190Z,19.30
2022-08-03T01:11:59.965Z,19.30
2022-08-03T01:14:45.720Z,19.30
2022-08-03T01:17:19.086Z,19.30
2022-08-03T01:20:01.936Z,19.30
2022-08-03T01:22:54.197Z,19.30
2022-08-03T01:25:39.848Z,19.30
2022-08-03T01:28:38.492Z,19.30
2022-08-03T01:31:08.342Z,19.30
2022-08-03T01:33:43.451Z,19.20
2022-08-03T01:36:14.430Z,19.20
2022-08-03T01:38:49.212Z,19.20
2022-08-03T01:41:21.104Z,19.10
2022-08-03T01:44:26.406Z,19.10
2022-08-03T01:46:40.260Z,19.00
2022-08-03T01:49:15.183Z,19.00
2022-08-03T01:52:02.841Z,19.00
2022-08-03T01:54:32.929Z,19.10
2022-08-03T01:56:59.792Z,18.90
2022-08-03T01:59:28.994Z,18.90
2022-08-03T02:02:27.920Z,19.00
2022-08-03T02:04:45.502Z,18.90
2022-08-03T02:07:14.139Z,18.90
2022-08-03T02:09:44.124Z,18.90
2022-08-03T02:12:12.161Z,18.90
2022-08-03T02:14:40.803Z,18.90
2022-08-03T02:17:08.074Z,18.80
2022-08-03T02:19:36.243Z,18.90
2022-08-03T02:22:04.790Z,18.90
2022-08-03T02:24:32.399Z,18.90
2022-08-03T02:27:01.021Z,18.80
2022-08-03T02:29:40.332Z,18.90
2022-08-03T02:32:12.282Z,18.80
2022-08-03T02:34:42.023Z,18.80
2022-08-03T02:37:11.381Z,18.80
2022-08-03T02:39:40.420Z,18.90
2022-08-03T02:42:09.244Z,18.70
2022-08-03T02:44:37.436Z,18.70
2022-08-03T02:47:07.919Z,18.70
2022-08-03T02:49:51.076Z,18.60
2022-08-03T02:52:23.625Z,18.50
2022-08-03T02:54:53.665Z,18.50
2022-08-03T02:57:21.549Z,18.50
2022-08-03T02:59:49.422Z,18.40
2022-08-03T03:02:17.208Z,18.40
2022-08-03T03:04:59.689Z,18.30
2022-08-03T03:07:35.330Z,18.30
2022-08-03T03:10:18.692Z,18.20
2022-08-03T03:12:46.593Z,18.20
2022-08-03T03:15:13.199Z,18.10
2022-08-03T03:17:40.897Z,18.10
2022-08-03T03:20:08.843Z,18.00
2022-08-03T03:22:36.036Z,18.00
2022-08-03T03:25:03.230Z,17.90
2022-08-03T03:27:30.292Z,17.90
2022-08-03T03:29:57.868Z,17.90
2022-08-03T03:32:26.347Z,17.70
2022-08-03T03:34:54.684Z,17.80
2022-08-03T03:37:21.273Z,17.70
2022-08-03T03:39:47.976Z,17.80
2022-08-03T03:42:14.739Z,17.60
2022-08-03T03:44:41.451Z,17.60
2022-08-03T03:47:08.052Z,17.60
2022-08-03T03:49:34.697Z,17.60
2022-08-03T03:52:01.320Z,17.60
2022-08-03T03:54:42.464Z,17.50
2022-08-03T03:57:12.940Z,17.60
2022-08-03T03:59:41.939Z,17.50
2022-08-03T04:02:09.909Z,17.50
2022-08-03T04:04:56.125Z,17.40
2022-08-03T04:07:46.118Z,17.50
2022-08-03T04:10:44.668Z,17.40
2022-08-03T04:13:15.042Z,17.40
2022-08-03T04:15:42.303Z,17.50
2022-08-03T04:18:13.521Z,17.40
2022-08-03T04:20:43.648Z,17.40
2022-08-03T04:23:16.488Z,17.50
2022-08-03T04:25:43.880Z,17.60
2022-08-03T04:28:30.062Z,17.60
2022-08-03T04:31:02.877Z,17.60
2022-08-03T04:33:32.879Z,17.70
2022-08-03T04:36:06.176Z,17.80
2022-08-03T04:38:38.840Z,17.90
2022-08-03T04:41:06.445Z,17.90
2022-08-03T04:43:34.476Z,17.90
2022-08-03T04:46:02.714Z,18.10
2022-08-03T04:48:29.436Z,18.30
2022-08-03T04:50:56.354Z,18.50
2022-08-03T04:53:23.245Z,18.70
2022-08-03T04:55:50.228Z,18.90
2022-08-03T04:58:16.856Z,19.10
2022-08-03T05:00:45.360Z,19.40
2022-08-03T05:03:20.570Z,19.60
2022-08-03T05:06:01.810Z,19.80
2022-08-03T05:08:36.128Z,19.90
2022-08-03T05:11:13.183Z,19.90
2022-08-03T05:13:39.750Z,20.10
2022-08-03T05:16:06.296Z,20.20
2022-08-03T05:18:32.955Z,20.40
2022-08-03T05:20:59.581Z,20.60
2022-08-03T05:23:26.117Z,20.80
2022-08-03T05:25:52.698Z,20.80
2022-08-03T05:28:19.357Z,20.90
2022-08-03T05:30:46.251Z,21.00
2022-08-03T05:33:12.808Z,21.20
2022-08-03T05:36:01.011Z,21.30
2022-08-03T05:38:28.607Z,21.40
2022-08-03T05:41:22.474Z,21.50
2022-08-03T05:43:47.172Z,21.80
2022-08-03T05:46:13.995Z,21.90
2022-08-03T05:48:41.462Z,22.00
2022-08-03T05:51:11.196Z,22.10
2022-08-03T05:53:38.548Z,22.30
2022-08-03T05:56:14.119Z,22.40
2022-08-03T05:58:41.931Z,22.50
2022-08-03T06:01:08.552Z,22.70
2022-08-03T06:03:35.156Z,22.80
2022-08-03T06:06:01.795Z,22.90
2022-08-03T06:08:28.411Z,23.10
2022-08-03T06:10:55.044Z,23.20
2022-08-03T06:13:21.952Z,23.30
2022-08-03T06:15:48.533Z,23.50
2022-08-03T06:18:15.104Z,23.60
2022-08-03T06:20:41.715Z,24.00
2022-08-03T06:23:08.370Z,24.20
2022-08-03T06:25:43.131Z,24.50
2022-08-03T06:28:19.125Z,24.80
2022-08-03T06:30:55.655Z,25.00
2022-08-03T06:33:22.203Z,25.20
2022-08-03T06:35:48.758Z,25.60
2022-08-03T06:38:15.328Z,26.10
2022-08-03T06:40:42.004Z,26.70
2022-08-03T06:43:12.560Z,27.10
2022-08-03T06:45:39.477Z,27.30
2022-08-03T06:48:08.857Z,27.40
2022-08-03T06:50:36.712Z,27.60
2022-08-03T06:53:04.770Z,28.10
2022-08-03T06:55:32.258Z,29.00
2022-08-03T06:57:59.833Z,30.10
2022-08-03T07:00:30.841Z,31.20
2022-08-03T07:02:58.407Z,32.40
2022-08-03T07:05:25.323Z,33.50
2022-08-03T07:07:56.850Z,34.70
2022-08-03T07:10:23.746Z,36.00
2022-08-03T07:12:52.674Z,37.00
2022-08-03T07:15:54.477Z,37.30
2022-08-03T07:18:09.981Z,37.40
2022-08-03T07:20:36.642Z,37.30
2022-08-03T07:23:03.228Z,37.50
2022-08-03T07:25:29.996Z,38.00
2022-08-03T07:27:56.554Z,38.50
2022-08-03T07:30:24.922Z,38.70
2022-08-03T07:32:51.467Z,38.90
2022-08-03T07:35:22.764Z,39.10
2022-08-03T07:37:54.181Z,39.40
2022-08-03T07:40:21.985Z,39.90
2022-08-03T07:42:48.605Z,40.10
2022-08-03T07:45:23.273Z,40.40
2022-08-03T07:47:53.665Z,40.50
2022-08-03T07:50:20.965Z,40.10
2022-08-03T07:52:47.852Z,39.50
2022-08-03T07:55:15.098Z,39.00
2022-08-03T07:57:41.710Z,38.70
2022-08-03T08:00:19.094Z,38.80
2022-08-03T08:02:46.266Z,39.00
2022-08-03T08:05:13.023Z,39.00
2022-08-03T08:07:40.164Z,38.70
2022-08-03T08:10:09.656Z,38.30
2022-08-03T08:12:37.644Z,37.50
2022-08-03T08:15:05.272Z,36.50
2022-08-03T08:17:31.806Z,35.50
2022-08-03T08:19:58.360Z,34.70
2022-08-03T08:22:30.426Z,33.90
2022-08-03T08:24:59.287Z,33.40
2022-08-03T08:27:26.056Z,32.70
2022-08-03T08:29:56.363Z,32.30
2022-08-03T08:32:25.454Z,31.90
2022-08-03T08:34:51.999Z,31.50
2022-08-03T08:37:18.674Z,31.10
2022-08-03T08:39:45.223Z,30.80
2022-08-03T08:42:12.102Z,30.60
2022-08-03T08:44:39.199Z,30.30
2022-08-03T08:47:07.967Z,30.10
2022-08-03T08:49:37.563Z,30.00
2022-08-03T08:52:25.242Z,29.80
2022-08-03T08:55:00.550Z,29.80
2022-08-03T08:57:42.733Z,29.70
2022-08-03T09:00:13.939Z,29.60
2022-08-03T09:02:42.469Z,29.60
2022-08-03T09:05:17.770Z,29.50
2022-08-03T09:07:45.797Z,29.40
2022-08-03T09:10:14.118Z,29.30
2022-08-03T09:12:46.683Z,29.30
2022-08-03T09:15:31.145Z,29.30
2022-08-03T09:18:02.732Z,29.30
2022-08-03T09:20:31.740Z,29.30
2022-08-03T09:23:00.891Z,29.40
2022-08-03T09:25:28.944Z,29.40
2022-08-03T09:28:03.687Z,29.30
2022-08-03T09:30:34.767Z,29.50
2022-08-03T09:33:03.976Z,29.50
2022-08-03T09:35:53.037Z,29.40
2022-08-03T09:38:26.260Z,29.50
2022-08-03T09:40:59.195Z,29.50
2022-08-03T09:43:27.511Z,29.60
2022-08-03T09:46:05.629Z,29.60
2022-08-03T09:48:34.907Z,29.60
2022-08-03T09:51:14.496Z,29.50
2022-08-03T09:53:57.190Z,29.60
2022-08-03T09:56:39.029Z,29.50
2022-08-03T09:59:05.727Z,29.50
2022-08-03T10:01:36.204Z,29.30
2022-08-03T10:04:05.183Z,29.50
2022-08-03T10:06:32.183Z,29.50
2022-08-03T10:09:10.155Z,29.50
2022-08-03T10:11:41.743Z,29.40
2022-08-03T10:14:11.370Z,29.50
2022-08-03T10:16:39.612Z,29.50
2022-08-03T10:19:09.665Z,29.50
2022-08-03T10:21:38.635Z,29.60
2022-08-03T10:24:07.955Z,29.50
2022-08-03T10:26:38.286Z,29.30
2022-08-03T10:29:12.844Z,29.40
2022-08-03T10:31:57.318Z,29.40
2022-08-03T10:34:27.311Z,29.60
2022-08-03T10:36:58.611Z,29.60
2022-08-03T10:39:28.888Z,29.60
2022-08-03T10:41:58.669Z,29.50
2022-08-03T10:44:32.512Z,29.60
2022-08-03T10:46:59.674Z,29.70
2022-08-03T10:49:33.835Z,29.60
2022-08-03T10:52:02.591Z,29.70
2022-08-03T10:55:07.618Z,29.80
2022-08-03T10:57:58.387Z,29.80
2022-08-03T11:00:27.598Z,29.80
2022-08-03T11:03:09.255Z,29.80
2022-08-03T11:05:44.355Z,29.80
2022-08-03T11:08:31.746Z,29.80
2022-08-03T11:11:28.293Z,29.80
2022-08-03T11:14:04.504Z,29.80
2022-08-03T11:16:36.893Z,29.80
2022-08-03T11:19:10.472Z,29.90
2022-08-03T11:21:52.396Z,30.00
2022-08-03T11:24:37.314Z,30.10
2022-08-03T11:27:19.866Z,30.10
2022-08-03T11:30:01.680Z,30.00
2022-08-03T11:32:37.582Z,29.90
2022-08-03T11:35:10.448Z,29.80
2022-08-03T11:38:03.250Z,29.70
2022-08-03T11:40:49.436Z,29.70
2022-08-03T11:43:21.954Z,29.70
2022-08-03T11:46:07.318Z,29.70
2022-08-03T11:48:35.937Z,29.80
2022-08-03T11:51:07.806Z,29.80
2022-08-03T11:53:41.810Z,29.80
2022-08-03T11:56:12.641Z,29.80
2022-08-03T11:59:16.541Z,29.90
2022-08-03T12:01:35.031Z,29.90
2022-08-03T12:04:05.792Z,30.00
2022-08-03T12:06:52.492Z,30.00
2022-08-03T12:09:21.364Z,29.90
2022-08-03T12:11:58.432Z,29.90
2022-08-03T12:14:48.576Z,29.90
2022-08-03T12:17:15.036Z,29.90
2022-08-03T12:19:42.794Z,29.90
2022-08-03T12:22:09.429Z,30.00
2022-08-03T12:24:46.326Z,30.00
2022-08-03T12:27:22.115Z,30.00
2022-08-03T12:29:58.203Z,30.20
2022-08-03T12:32:26.739Z,30.20
2022-08-03T12:34:53.542Z,30.20
2022-08-03T12:37:23.802Z,30.10
2022-08-03T12:40:03.547Z,30.10
2022-08-03T12:42:38.240Z,30.10
2022-08-03T12:45:26.889Z,30.10
2022-08-03T12:48:01.056Z,30.00
2022-08-03T12:50:35.568Z,30.10
2022-08-03T12:53:05.094Z,30.20
2022-08-03T12:55:57.344Z,30.30
2022-08-03T12:58:34.379Z,30.40
2022-08-03T13:01:05.009Z,30.60
2022-08-03T13:03:49.931Z,30.60
2022-08-03T13:06:26.397Z,30.60
2022-08-03T13:09:07.283Z,30.60
2022-08-03T13:11:55.735Z,30.60
2022-08-03T13:14:20.813Z,30.50
2022-08-03T13:16:48.746Z,30.50
2022-08-03T13:19:16.190Z,30.60
2022-08-03T13:22:02.283Z,30.50
2022-08-03T13:24:30.583Z,30.60
2022-08-03T13:26:58.855Z,30.60
2022-08-03T13:29:25.405Z,30.60
2022-08-03T13:31:53.033Z,30.60
2022-08-03T13:34:23.379Z,30.60
2022-08-03T13:39:57.562Z,30.60
2022-08-03T13:42:25.443Z,30.70
2022-08-03T13:44:52.192Z,30.70
2022-08-03T13:47:19.598Z,30.70
2022-08-03T13:50:00.117Z,30.70
2022-08-03T13:52:34.354Z,30.70
2022-08-03T13:55:06.109Z,30.60
2022-08-03T13:58:06.645Z,30.50
2022-08-03T14:00:27.364Z,30.50
2022-08-03T14:03:01.918Z,30.40
2022-08-03T14:05:31.895Z,30.40
2022-08-03T14:08:04.767Z,30.40
2022-08-03T14:10:36.295Z,30.50
2022-08-03T14:13:04.049Z,30.60
2022-08-03T14:15:30.816Z,30.80
2022-08-03T14:17:58.378Z,31.00
2022-08-03T14:20:36.947Z,31.10
2022-08-03T14:23:06.668Z,31.20
2022-08-03T14:25:43.119Z,31.20
2022-08-03T14:28:16.892Z,31.30
2022-08-03T14:30:43.470Z,31.30
2022-08-03T14:33:10.093Z,31.20
2022-08-03T14:35:36.642Z,31.30
2022-08-03T14:38:03.217Z,31.30
2022-08-03T14:40:29.778Z,31.40
2022-08-03T14:42:56.424Z,31.40
2022-08-03T14:45:23.188Z,31.40
2022-08-03T14:50:29.294Z,31.60
2022-08-03T14:50:43.273Z,31.60
2022-08-03T14:53:12.395Z,31.50
2022-08-03T14:55:50.520Z,30.20
2022-08-03T14:58:25.869Z,31.30
2022-08-03T15:00:53.715Z,31.20
2022-08-03T15:03:25.413Z,31.00
2022-08-03T15:05:54.029Z,30.90
2022-08-03T15:08:22.170Z,30.90
2022-08-03T15:10:49.204Z,31.00
2022-08-03T15:13:17.043Z,30.90
2022-08-03T15:15:43.836Z,30.90
2022-08-03T15:18:10.397Z,31.00
2022-08-03T15:20:44.427Z,31.00
2022-08-03T15:23:13.360Z,31.00
2022-08-03T15:26:28.766Z,31.00
2022-08-03T15:28:26.503Z,30.90
2022-08-03T15:30:53.286Z,30.90
2022-08-03T15:33:20.295Z,30.90
2022-08-03T15:35:47.419Z,31.00
2022-08-03T15:38:13.997Z,31.00
2022-08-03T15:40:40.689Z,31.00
2022-08-03T15:43:07.752Z,31.10
2022-08-03T15:45:36.135Z,31.10
2022-08-03T15:48:03.439Z,31.10
2022-08-03T15:50:30.001Z,31.20
2022-08-03T15:52:56.846Z,31.30
2022-08-03T15:55:23.522Z,31.10
2022-08-03T15:59:04.065Z,31.80
2022-08-03T16:00:36.626Z,31.10
2022-08-03T16:03:03.505Z,31.20
2022-08-03T16:05:30.152Z,31.20
2022-08-03T16:08:02.689Z,31.30
2022-08-03T16:10:32.058Z,31.30
2022-08-03T16:12:59.794Z,31.30
2022-08-03T16:15:26.361Z,31.30
2022-08-03T16:17:52.999Z,31.30
2022-08-03T16:20:29.735Z,31.30
2022-08-03T16:22:58.924Z,31.20
2022-08-03T16:25:28.203Z,31.20
2022-08-03T16:28:00.595Z,31.20
2022-08-03T16:30:35.183Z,31.10
2022-08-03T16:33:01.767Z,31.20
2022-08-03T16:35:28.564Z,31.10
2022-08-03T16:37:56.474Z,31.10
2022-08-03T16:40:24.811Z,31.10
2022-08-03T16:42:51.419Z,31.00
2022-08-03T16:45:18.204Z,31.00
2022-08-03T16:47:44.805Z,30.90
2022-08-03T16:50:18.968Z,30.90
2022-08-03T16:52:47.072Z,30.70
2022-08-03T16:55:15.548Z,30.70
2022-08-03T16:57:59.523Z,30.60
2022-08-03T17:00:34.085Z,30.50
2022-08-03T17:03:18.883Z,30.50
2022-08-03T17:05:49.636Z,30.40
2022-08-03T17:08:26.889Z,30.40
2022-08-03T17:10:54.612Z,30.40
2022-08-03T17:13:22.773Z,30.30
2022-08-03T17:15:57.636Z,30.40
2022-08-03T17:18:26.543Z,30.40
2022-08-03T17:20:54.777Z,30.50
2022-08-03T17:23:35.834Z,30.50
2022-08-03T17:26:07.483Z,30.60
2022-08-03T17:28:51.836Z,30.70
2022-08-03T17:31:31.380Z,30.60
2022-08-03T17:34:01.285Z,30.60
2022-08-03T17:36:47.481Z,30.60
2022-08-03T17:39:16.678Z,30.60
2022-08-03T17:41:50.018Z,30.50
2022-08-03T17:44:35.144Z,30.50
2022-08-03T17:47:06.532Z,30.50
2022-08-03T17:49:33.403Z,30.40
2022-08-03T17:52:35.372Z,30.30
2022-08-03T17:55:56.535Z,30.20
2022-08-03T17:58:08.080Z,30.20
2022-08-03T18:00:56.090Z,30.20
2022-08-03T18:03:59.136Z,30.20
2022-08-03T18:06:30.927Z,30.20
2022-08-03T18:09:04.860Z,30.10
2022-08-03T18:11:35.358Z,30.10
2022-08-03T18:14:15.936Z,30.10
2022-08-03T18:16:48.803Z,30.00
2022-08-03T18:19:16.789Z,29.80
2022-08-03T18:24:41.523Z,29.60
2022-08-03T18:27:10.558Z,29.40
2022-08-03T18:29:37.987Z,29.40
2022-08-03T18:32:13.266Z,29.10
2022-08-03T18:34:53.853Z,29.00
2022-08-03T18:37:26.001Z,28.80
2022-08-03T18:39:57.939Z,28.60
2022-08-03T18:42:26.201Z,28.40
2022-08-03T18:44:56.531Z,28.20
2022-08-03T18:47:51.003Z,28.10
2022-08-03T18:50:35.647Z,27.90
2022-08-03T18:54:03.123Z,27.70
2022-08-03T18:56:43.292Z,27.60
2022-08-03T18:59:18.954Z,27.40
2022-08-03T19:02:05.502Z,27.20
2022-08-03T19:04:44.400Z,27.00
2022-08-03T19:07:17.715Z,26.80
2022-08-03T19:09:52.961Z,26.70
2022-08-03T19:12:33.944Z,26.60
2022-08-03T19:15:10.357Z,26.40
2022-08-03T19:17:50.065Z,26.30
2022-08-03T19:20:22.532Z,26.10
2022-08-03T19:22:53.086Z,26.00
2022-08-03T19:25:19.779Z,25.80
2022-08-03T19:28:05.814Z,25.70
2022-08-03T19:30:40.013Z,25.60
2022-08-03T19:33:09.523Z,25.40
2022-08-03T19:35:55.066Z,25.30
2022-08-03T19:38:29.093Z,25.20
2022-08-03T19:41:03.504Z,25.00
2022-08-03T19:43:49.333Z,24.90
2022-08-03T19:46:22.872Z,24.70
2022-08-03T19:49:04.596Z,24.60
2022-08-03T19:52:01.195Z,24.30
2022-08-03T19:54:29.880Z,24.30
2022-08-03T19:57:00.168Z,24.30
2022-08-03T19:59:29.814Z,24.00
2022-08-03T20:01:57.444Z,24.00
2022-08-03T20:04:24.232Z,23.80
2022-08-03T20:06:52.145Z,23.80
2022-08-03T20:09:20.218Z,23.70
2022-08-03T20:11:48.015Z,23.60
2022-08-03T20:14:20.885Z,23.60
2022-08-03T20:16:54.512Z,23.50
2022-08-03T20:19:22.895Z,23.40
2022-08-03T20:21:50.859Z,23.30
2022-08-03T20:24:25.039Z,23.10
2022-08-03T20:26:58.055Z,23.10
2022-08-03T20:30:04.971Z,22.90
2022-08-03T20:32:24.436Z,22.80
2022-08-03T20:34:52.884Z,22.70
2022-08-03T20:37:19.861Z,22.50
2022-08-03T20:39:49.503Z,22.50
2022-08-03T20:42:21.269Z,22.40
2022-08-03T20:45:04.531Z,22.30
2022-08-03T20:47:33.406Z,22.30
2022-08-03T20:50:07.758Z,22.30
2022-08-03T20:52:37.057Z,22.20
2022-08-03T20:55:18.577Z,22.10
2022-08-03T20:57:49.247Z,22.10
2022-08-03T21:00:19.412Z,22.10
2022-08-03T21:02:48.756Z,22.00
2022-08-03T21:05:15.459Z,22.00
2022-08-03T21:08:06.226Z,21.90
2022-08-03T21:10:38.187Z,21.90
2022-08-03T21:13:04.791Z,29.70
2022-08-03T21:13:18.087Z,21.80
2022-08-03T21:16:04.828Z,21.80
2022-08-03T21:18:40.962Z,21.70
2022-08-03T21:21:09.987Z,21.60
2022-08-03T21:23:48.940Z,21.60
2022-08-03T21:26:23.961Z,21.60
2022-08-03T21:28:53.069Z,21.40
2022-08-03T21:31:25.762Z,21.30
2022-08-03T21:33:57.691Z,21.20
2022-08-03T21:36:27.400Z,21.10
2022-08-03T21:38:56.579Z,21.00
2022-08-03T21:41:24.801Z,20.90
2022-08-03T21:43:51.473Z,20.80
2022-08-03T21:46:19.575Z,20.80
2022-08-03T21:48:51.273Z,20.70
2022-08-03T21:51:19.921Z,20.70
2022-08-03T21:54:03.614Z,20.70
2022-08-03T21:56:41.529Z,20.70
2022-08-03T21:59:15.656Z,20.70
2022-08-03T22:01:45.502Z,20.60
2022-08-03T22:04:45.872Z,20.50
2022-08-03T22:07:05.159Z,20.60
2022-08-03T22:09:34.169Z,20.40
2022-08-03T22:12:00.858Z,20.40
2022-08-03T22:14:27.660Z,20.40
2022-08-03T22:16:54.435Z,20.30
2022-08-03T22:19:21.001Z,20.30
2022-08-03T22:21:48.894Z,19.90
2022-08-03T22:24:19.536Z,20.30
2022-08-03T22:27:11.576Z,20.10
2022-08-03T22:29:41.677Z,20.20
2022-08-03T22:32:08.691Z,20.10
2022-08-03T22:34:36.909Z,20.20
2022-08-03T22:37:04.460Z,20.10
2022-08-03T22:39:31.692Z,20.00
2022-08-03T22:41:59.031Z,20.00
2022-08-03T22:44:27.132Z,19.90
2022-08-03T22:46:53.938Z,19.80
2022-08-03T22:49:21.533Z,19.90
2022-08-03T22:51:50.459Z,19.80
2022-08-03T22:54:17.142Z,19.80
2022-08-03T22:56:49.037Z,19.80
2022-08-03T22:59:39.141Z,19.80
2022-08-03T23:02:20.106Z,19.80
2022-08-03T23:04:51.681Z,19.70
2022-08-03T23:07:27.180Z,19.80
2022-08-03T23:09:55.370Z,19.60
2022-08-03T23:12:23.234Z,19.60
2022-08-03T23:14:55.488Z,19.60
2022-08-03T23:17:24.217Z,19.50
2022-08-03T23:19:52.703Z,19.40
2022-08-03T23:22:30.550Z,19.20
2022-08-03T23:24:58.822Z,19.30
2022-08-03T23:27:27.672Z,19.20
2022-08-03T23:29:55.828Z,19.30
2022-08-03T23:32:25.797Z,19.10
2022-08-03T23:35:17.700Z,19.20
2022-08-03T23:38:04.093Z,19.20
2022-08-03T23:40:33.833Z,19.10
2022-08-03T23:43:01.804Z,19.20
2022-08-03T23:45:31.524Z,19.10
2022-08-03T23:47:58.105Z,19.20
2022-08-03T23:50:26.271Z,19.20
2022-08-03T23:53:02.662Z,18.60
2022-08-03T23:55:34.984Z,19.10
2022-08-03T23:58:19.753Z,19.10
